Time;durP1;ratioP1;P1;durP2;ratioP2;P2;SDS_P1;SDS_P2;PMS_P1;PMS_P2;Temp;Humidity;BMP_temperature;BMP_pressure;BME280_temperature;BME280_humidity;BME280_pressure;Samples;Min_cycle;Max_cycle;Signal;HPM_P1;HPM_P2
2021/09/03 00:01:16;;;;;;;19.55;13.20;;;12.00;99.90;;;;;;5051308;28;20444;-74
2021/09/03 00:03:42;;;;;;;22.63;14.68;;;12.10;99.90;;;;;;5051304;28;20388;-73
2021/09/03 00:06:08;;;;;;;20.27;14.50;;;12.10;99.90;;;;;;5050781;28;20029;-74
2021/09/03 00:08:34;;;;;;;16.10;12.18;;;12.10;99.90;;;;;;5051205;28;20029;-74
2021/09/03 00:10:59;;;;;;;16.17;12.25;;;12.00;99.90;;;;;;5051335;28;20445;-74
2021/09/03 00:13:28;;;;;;;18.60;13.82;;;12.00;99.90;;;;;;5051069;28;20471;-73
2021/09/03 00:15:54;;;;;;;21.10;14.10;;;11.90;99.90;;;;;;5050608;28;20542;-76
2021/09/03 00:18:20;;;;;;;17.42;13.48;;;11.80;99.90;;;;;;5051309;28;20033;-74
2021/09/03 00:20:46;;;;;;;27.42;14.52;;;11.80;99.90;;;;;;5051628;28;20025;-75
2021/09/03 00:23:11;;;;;;;18.88;13.38;;;11.80;99.90;;;;;;5051278;28;20364;-75
2021/09/03 00:25:37;;;;;;;19.02;12.38;;;11.70;99.90;;;;;;5050596;28;20021;-74
2021/09/03 00:28:03;;;;;;;17.98;13.63;;;11.70;99.90;;;;;;5050879;28;20095;-76
2021/09/03 00:30:29;;;;;;;18.13;13.27;;;11.70;99.90;;;;;;5048991;28;20529;-75
2021/09/03 00:32:54;;;;;;;19.92;13.38;;;11.70;99.90;;;;;;5050773;28;20364;-76
2021/09/03 00:35:20;;;;;;;18.20;13.30;;;11.70;99.90;;;;;;5050487;28;20064;-74
2021/09/03 00:37:45;;;;;;;18.88;13.45;;;11.60;99.90;;;;;;5050740;28;20029;-74
2021/09/03 00:40:11;;;;;;;27.73;16.67;;;11.60;99.90;;;;;;5050939;28;20017;-74
2021/09/03 00:42:37;;;;;;;21.33;15.52;;;11.60;99.90;;;;;;5051106;28;20082;-75
2021/09/03 00:45:04;;;;;;;20.45;14.82;;;11.60;99.90;;;;;;5050125;28;20083;-73
2021/09/03 00:47:29;;;;;;;22.67;15.10;;;11.60;99.90;;;;;;5051047;28;20422;-75
2021/09/03 00:49:55;;;;;;;17.90;14.23;;;11.60;99.90;;;;;;5049515;28;20029;-74
2021/09/03 00:52:21;;;;;;;24.55;16.05;;;11.60;99.90;;;;;;5049468;28;20663;-76
2021/09/03 00:54:47;;;;;;;23.25;15.65;;;11.60;99.90;;;;;;5048981;28;20084;-76
2021/09/03 00:57:13;;;;;;;17.40;13.32;;;11.60;99.90;;;;;;5050690;28;20390;-76
2021/09/03 00:59:39;;;;;;;18.13;12.93;;;11.50;99.90;;;;;;5063469;22;20045;-75
2021/09/03 01:02:04;;;;;;;19.70;12.60;;;11.50;99.90;;;;;;5035610;28;20025;-75
2021/09/03 01:04:30;;;;;;;17.63;13.35;;;11.50;99.90;;;;;;5054363;28;20856;-75
2021/09/03 01:06:56;;;;;;;21.05;13.90;;;11.40;99.90;;;;;;5055326;28;20048;-76
2021/09/03 01:09:22;;;;;;;18.42;14.13;;;11.30;99.90;;;;;;5054566;28;20402;-75
2021/09/03 01:11:47;;;;;;;23.67;15.18;;;11.30;99.90;;;;;;5054546;28;20025;-75
2021/09/03 01:14:13;;;;;;;20.02;14.07;;;11.30;99.90;;;;;;5036705;28;20029;-74
2021/09/03 01:16:39;;;;;;;22.90;15.75;;;11.30;99.90;;;;;;5053926;28;20029;-76
2021/09/03 01:19:06;;;;;;;20.13;13.05;;;11.20;99.90;;;;;;5036539;28;20078;-75
2021/09/03 01:21:31;;;;;;;19.17;13.80;;;11.20;99.90;;;;;;5054378;28;20082;-74
2021/09/03 01:23:57;;;;;;;19.38;13.38;;;11.20;99.90;;;;;;5036639;28;20475;-74
2021/09/03 01:26:25;;;;;;;18.08;13.35;;;11.20;99.90;;;;;;5053627;28;20091;-75
2021/09/03 01:28:51;;;;;;;21.65;13.80;;;11.10;99.90;;;;;;5053835;28;20021;-76
2021/09/03 01:31:17;;;;;;;18.50;13.45;;;11.20;99.90;;;;;;5054251;28;20100;-76
2021/09/03 01:33:43;;;;;;;20.00;14.98;;;11.20;99.90;;;;;;5054359;28;20108;-76
2021/09/03 01:36:08;;;;;;;22.10;13.77;;;11.10;99.90;;;;;;5053418;28;20455;-74
2021/09/03 01:38:34;;;;;;;18.65;13.57;;;11.10;99.90;;;;;;5035931;28;20082;-74
2021/09/03 01:41:00;;;;;;;17.42;13.25;;;11.00;99.90;;;;;;5035998;28;20116;-74
2021/09/03 01:43:25;;;;;;;18.55;13.77;;;11.00;99.90;;;;;;5054073;28;20390;-74
2021/09/03 01:45:52;;;;;;;24.90;14.00;;;11.00;99.90;;;;;;5052987;28;20028;-75
2021/09/03 01:48:18;;;;;;;26.50;16.65;;;11.00;99.90;;;;;;5053699;28;20037;-74
2021/09/03 01:50:44;;;;;;;24.60;15.98;;;10.90;99.90;;;;;;5035919;28;20171;-75
2021/09/03 01:53:09;;;;;;;27.05;16.65;;;10.90;99.90;;;;;;5053676;28;20029;-74
2021/09/03 01:55:35;;;;;;;25.08;16.45;;;10.90;99.90;;;;;;5052705;28;20029;-75
2021/09/03 01:58:01;;;;;;;22.58;13.88;;;10.90;99.90;;;;;;5053641;28;20468;-74
2021/09/03 02:00:26;;;;;;;20.63;14.90;;;10.90;99.90;;;;;;5035242;28;20399;-73
2021/09/03 02:02:52;;;;;;;22.20;15.52;;;10.90;99.90;;;;;;5035558;28;20049;-74
2021/09/03 02:05:18;;;;;;;18.45;13.05;;;10.90;99.90;;;;;;5052709;28;20104;-75
2021/09/03 02:07:44;;;;;;;20.42;14.93;;;10.90;99.90;;;;;;5053433;28;20055;-75
2021/09/03 02:10:10;;;;;;;19.27;13.45;;;10.90;99.90;;;;;;5053064;28;20043;-75
2021/09/03 02:12:35;;;;;;;25.05;15.68;;;10.90;99.90;;;;;;5052456;28;20017;-75
2021/09/03 02:15:01;;;;;;;21.52;12.85;;;10.80;99.90;;;;;;5034200;28;20379;-75
2021/09/03 02:17:27;;;;;;;19.60;14.35;;;10.80;99.90;;;;;;5053226;28;20078;-73
2021/09/03 02:19:52;;;;;;;23.25;14.80;;;10.70;99.90;;;;;;5053022;28;20071;-75
2021/09/03 02:22:18;;;;;;;25.90;15.50;;;10.70;99.90;;;;;;5053143;28;20490;-75
2021/09/03 02:24:44;;;;;;;22.05;15.07;;;10.60;99.90;;;;;;5034355;28;20021;-74
2021/09/03 02:27:09;;;;;;;25.90;15.98;;;10.60;99.90;;;;;;5053076;28;20025;-74
2021/09/03 02:29:35;;;;;;;25.38;16.70;;;10.60;99.90;;;;;;5034921;28;20039;-74
2021/09/03 02:32:01;;;;;;;24.60;15.68;;;10.60;99.90;;;;;;5054259;28;20571;-75
2021/09/03 02:34:26;;;;;;;26.95;15.98;;;10.50;99.90;;;;;;5054366;28;20032;-75
2021/09/03 02:36:52;;;;;;;25.88;15.85;;;10.50;99.90;;;;;;5053641;28;20398;-75
2021/09/03 02:39:18;;;;;;;26.02;16.00;;;10.50;99.90;;;;;;5052722;28;20029;-74
2021/09/03 02:41:43;;;;;;;34.60;20.20;;;10.60;99.90;;;;;;5052803;28;20036;-73
2021/09/03 02:44:10;;;;;;;24.58;17.58;;;10.70;99.90;;;;;;5052442;28;20512;-74
2021/09/03 02:46:36;;;;;;;33.20;18.90;;;10.80;99.90;;;;;;5034209;28;20520;-74
2021/09/03 02:49:01;;;;;;;37.63;19.55;;;10.80;99.90;;;;;;5052555;28;20494;-73
2021/09/03 02:51:27;;;;;;;27.85;17.10;;;10.90;99.90;;;;;;5052752;28;20501;-75
2021/09/03 02:53:53;;;;;;;29.52;18.70;;;10.80;99.90;;;;;;5052513;28;20082;-75
2021/09/03 02:56:18;;;;;;;29.90;18.95;;;10.90;99.90;;;;;;5051769;28;20025;-74
2021/09/03 02:58:44;;;;;;;30.98;18.77;;;10.90;99.90;;;;;;5052112;28;20116;-73
2021/09/03 03:01:10;;;;;;;38.05;20.40;;;10.90;99.90;;;;;;5052117;28;20056;-75
2021/09/03 03:03:36;;;;;;;30.27;18.15;;;11.00;99.90;;;;;;5034416;28;20071;-75
2021/09/03 03:06:02;;;;;;;28.20;17.02;;;10.90;99.90;;;;;;5051754;28;20035;-76
2021/09/03 03:08:28;;;;;;;23.20;15.55;;;10.80;99.90;;;;;;5052213;28;20061;-75
2021/09/03 03:10:53;;;;;;;25.23;16.17;;;10.80;99.90;;;;;;5052417;28;20033;-75
2021/09/03 03:13:20;;;;;;;21.58;14.77;;;10.80;99.90;;;;;;5052612;28;20043;-75
2021/09/03 03:15:47;;;;;;;24.25;15.23;;;10.70;99.90;;;;;;5051419;28;20036;-75
2021/09/03 03:18:13;;;;;;;23.65;15.30;;;10.70;99.90;;;;;;5052166;28;20142;-75
2021/09/03 03:20:39;;;;;;;26.27;16.67;;;10.80;99.90;;;;;;5052228;28;20566;-74
2021/09/03 03:23:04;;;;;;;29.98;18.35;;;11.00;99.90;;;;;;5052049;28;20029;-73
2021/09/03 03:25:30;;;;;;;26.85;17.17;;;11.00;99.90;;;;;;5051367;28;20028;-75
2021/09/03 03:27:56;;;;;;;25.73;16.75;;;11.00;99.90;;;;;;5051972;28;20187;-76
2021/09/03 03:30:21;;;;;;;24.63;15.38;;;10.90;99.90;;;;;;5033571;28;20060;-75
2021/09/03 03:32:47;;;;;;;23.63;15.20;;;10.70;99.90;;;;;;5051864;28;20032;-76
2021/09/03 03:35:12;;;;;;;36.92;17.50;;;10.70;99.90;;;;;;5051283;28;20021;-76
2021/09/03 03:37:38;;;;;;;43.13;16.35;;;10.90;99.90;;;;;;5051266;28;20036;-75
2021/09/03 03:40:04;;;;;;;48.55;17.15;;;10.80;99.90;;;;;;5051507;28;20025;-75
2021/09/03 03:42:30;;;;;;;59.47;14.45;;;11.00;99.90;;;;;;5051834;28;20048;-75
2021/09/03 03:44:56;;;;;;;19.00;12.88;;;10.70;99.90;;;;;;5033028;28;20544;-74
2021/09/03 03:47:21;;;;;;;42.33;14.48;;;10.40;99.90;;;;;;5048577;28;20020;-73
2021/09/03 03:49:47;;;;;;;28.35;16.17;;;10.50;99.90;;;;;;5060929;28;20037;-74
2021/09/03 03:52:12;;;;;;;37.25;14.27;;;10.40;99.90;;;;;;5051480;28;20056;-75
2021/09/03 03:54:38;;;;;;;29.90;13.18;;;10.30;99.90;;;;;;5051008;28;20028;-75
2021/09/03 03:57:04;;;;;;;31.50;13.48;;;10.30;99.90;;;;;;5051645;28;20025;-75
2021/09/03 03:59:30;;;;;;;18.85;12.40;;;10.20;99.90;;;;;;5051030;28;20103;-75
2021/09/03 04:01:56;;;;;;;15.55;11.68;;;10.20;99.90;;;;;;5033835;28;20033;-74
2021/09/03 04:04:21;;;;;;;19.42;14.68;;;10.30;99.90;;;;;;5051004;28;20021;-74
2021/09/03 04:06:47;;;;;;;19.85;13.45;;;10.20;99.90;;;;;;5051253;28;20495;-76
2021/09/03 04:09:13;;;;;;;19.25;13.57;;;10.30;99.90;;;;;;5051332;28;20022;-75
2021/09/03 04:11:41;;;;;;;18.92;13.48;;;10.40;99.90;;;;;;5051337;28;20056;-74
2021/09/03 04:14:07;;;;;;;37.95;15.55;;;10.40;99.90;;;;;;5033183;28;20029;-75
2021/09/03 04:16:33;;;;;;;19.00;14.75;;;10.50;99.90;;;;;;5050787;28;20096;-74
2021/09/03 04:18:59;;;;;;;21.65;13.38;;;10.50;99.90;;;;;;5051295;28;20056;-75
2021/09/03 04:21:24;;;;;;;16.00;12.40;;;10.50;99.90;;;;;;5051249;28;20105;-74
2021/09/03 04:23:50;;;;;;;20.63;11.65;;;10.40;99.90;;;;;;5051379;28;20039;-74
2021/09/03 04:26:16;;;;;;;14.57;11.63;;;10.50;99.90;;;;;;5050807;28;20032;-76
2021/09/03 04:28:43;;;;;;;19.35;13.45;;;10.30;99.90;;;;;;5033419;28;20029;-76
2021/09/03 04:31:09;;;;;;;35.03;16.17;;;10.30;99.90;;;;;;5051387;28;20100;-76
2021/09/03 04:33:35;;;;;;;24.33;17.55;;;10.50;99.90;;;;;;5043145;28;20029;-78
2021/09/03 04:36:01;;;;;;;22.67;16.75;;;10.60;99.90;;;;;;5046441;28;20021;-81
2021/09/03 04:38:27;;;;;;;22.40;16.05;;;10.70;99.90;;;;;;5037617;28;20371;-81
2021/09/03 04:40:53;;;;;;;22.25;15.18;;;10.60;99.90;;;;;;5056015;28;20009;-79
2021/09/03 04:43:18;;;;;;;22.02;15.32;;;10.70;99.90;;;;;;5056792;28;20021;-82
2021/09/03 04:45:44;;;;;;;23.60;14.80;;;10.50;99.90;;;;;;5054934;28;20851;-81
2021/09/03 04:48:09;;;;;;;24.90;16.13;;;10.50;99.90;;;;;;5058207;28;20029;-82
2021/09/03 04:50:35;;;;;;;169.38;17.65;;;10.60;99.90;;;;;;5055303;28;20393;-82
2021/09/03 04:53:01;;;;;;;40.65;15.13;;;10.70;99.90;;;;;;5056350;28;20025;-82
2021/09/03 04:55:26;;;;;;;27.45;14.23;;;10.80;99.90;;;;;;5044788;28;20025;-82
2021/09/03 04:57:52;;;;;;;19.15;14.43;;;10.80;99.90;;;;;;5055167;28;20021;-82
2021/09/03 05:00:18;;;;;;;61.90;16.45;;;10.70;99.90;;;;;;5054995;28;20530;-82
2021/09/03 05:02:44;;;;;;;54.33;16.63;;;10.80;99.90;;;;;;5055568;28;20032;-80
2021/09/03 05:05:10;;;;;;;21.77;15.73;;;10.80;99.90;;;;;;5055330;28;20025;-82
2021/09/03 05:07:36;;;;;;;33.22;15.07;;;10.80;99.90;;;;;;5058046;28;20092;-82
2021/09/03 05:10:04;;;;;;;115.10;15.90;;;10.90;99.90;;;;;;5056780;28;20025;-82
2021/09/03 05:12:30;;;;;;;39.33;16.05;;;10.90;99.90;;;;;;5056637;28;20028;-81
2021/09/03 05:14:55;;;;;;;21.10;13.50;;;10.90;99.90;;;;;;5055227;28;20043;-82
2021/09/03 05:17:22;;;;;;;19.92;12.93;;;10.70;99.90;;;;;;5046718;28;20025;-83
2021/09/03 05:19:47;;;;;;;18.55;11.75;;;10.50;99.90;;;;;;5055942;28;20028;-84
2021/09/03 05:22:13;;;;;;;28.73;13.63;;;10.50;99.90;;;;;;5043887;28;20033;-84
2021/09/03 05:24:38;;;;;;;17.27;12.68;;;10.60;99.90;;;;;;5055437;28;20024;-86
2021/09/03 05:27:04;;;;;;;19.50;13.48;;;10.70;99.90;;;;;;5056450;28;20527;-85
2021/09/03 05:29:30;;;;;;;36.83;15.52;;;10.60;99.90;;;;;;5054570;28;20025;-85
2021/09/03 05:31:56;;;;;;;19.15;14.25;;;10.80;99.90;;;;;;5046559;28;20025;-83
2021/09/03 05:34:22;;;;;;;16.98;13.80;;;10.90;99.90;;;;;;5059246;28;20071;-85
2021/09/03 05:36:47;;;;;;;18.42;14.45;;;10.70;99.90;;;;;;5059836;28;20052;-83
2021/09/03 05:39:13;;;;;;;22.52;13.73;;;10.80;99.90;;;;;;5058346;28;20017;-82
2021/09/03 05:41:39;;;;;;;18.30;14.45;;;10.60;99.90;;;;;;5061301;28;20041;-81
2021/09/03 05:44:04;;;;;;;44.08;14.80;;;10.80;99.90;;;;;;5058293;28;20013;-81
2021/09/03 05:46:30;;;;;;;25.15;12.75;;;10.70;99.90;;;;;;5057976;28;20032;-83
2021/09/03 05:48:55;;;;;;;16.08;11.52;;;10.50;99.90;;;;;;5059399;28;20052;-82
2021/09/03 05:51:21;;;;;;;41.35;12.57;;;10.40;99.90;;;;;;5061533;28;20575;-82
2021/09/03 05:53:47;;;;;;;14.10;10.88;;;10.30;99.90;;;;;;5059136;28;20012;-79
2021/09/03 05:56:12;;;;;;;18.95;11.98;;;10.20;99.90;;;;;;5082481;28;20059;-80
2021/09/03 05:58:38;;;;;;;13.05;11.50;;;10.30;99.90;;;;;;5073733;28;20036;-83
2021/09/03 06:01:04;;;;;;;13.15;11.43;;;10.50;99.90;;;;;;5064469;28;20028;-78
2021/09/03 06:03:30;;;;;;;20.27;12.70;;;10.40;99.90;;;;;;5055321;28;20017;-80
2021/09/03 06:05:56;;;;;;;66.13;12.40;;;10.80;99.90;;;;;;5054696;28;20033;-82
2021/09/03 06:08:21;;;;;;;14.27;11.63;;;10.90;99.90;;;;;;5056543;28;20047;-80
2021/09/03 06:10:47;;;;;;;23.85;12.07;;;10.80;99.90;;;;;;5056283;28;20029;-81
2021/09/03 06:13:13;;;;;;;22.67;10.57;;;10.90;99.90;;;;;;5039200;28;20104;-81
2021/09/03 06:15:38;;;;;;;11.70;9.70;;;10.90;99.90;;;;;;5055989;28;20025;-77
2021/09/03 06:18:04;;;;;;;9.98;8.40;;;10.80;99.90;;;;;;5053160;28;20082;-77
2021/09/03 06:20:30;;;;;;;13.30;7.72;;;10.80;99.90;;;;;;5053619;28;20041;-78
2021/09/03 06:22:55;;;;;;;8.77;7.15;;;10.70;99.90;;;;;;5055084;28;20029;-79
2021/09/03 06:25:21;;;;;;;16.27;6.95;;;10.60;99.90;;;;;;5055524;28;20608;-79
2021/09/03 06:27:47;;;;;;;8.07;6.50;;;10.20;99.90;;;;;;5041113;28;20021;-81
2021/09/03 06:30:12;;;;;;;8.30;7.47;;;9.90;99.90;;;;;;5041660;28;20024;-84
2021/09/03 06:32:38;;;;;;;9.73;7.90;;;10.00;99.90;;;;;;5054239;28;20032;-81
2021/09/03 06:35:06;;;;;;;11.32;9.80;;;10.30;99.90;;;;;;5054687;28;20048;-84
2021/09/03 06:37:32;;;;;;;12.80;8.75;;;10.60;99.90;;;;;;5054252;28;20104;-80
2021/09/03 06:39:58;;;;;;;13.07;11.00;;;10.70;99.90;;;;;;5054761;28;20032;-80
2021/09/03 06:42:30;;;;;;;11.55;10.32;;;10.90;99.90;;;;;;5054605;28;20025;-84
2021/09/03 06:44:59;;;;;;;10.55;8.90;;;11.00;99.90;;;;;;5035751;28;20082;-80
2021/09/03 06:47:25;;;;;;;12.20;9.55;;;11.00;99.90;;;;;;5056727;28;20382;-79
2021/09/03 06:49:51;;;;;;;9.32;8.43;;;11.00;99.90;;;;;;5057069;28;20125;-78
2021/09/03 06:52:16;;;;;;;9.80;8.57;;;11.00;99.90;;;;;;5056669;28;20025;-80
2021/09/03 06:54:42;;;;;;;12.32;9.15;;;10.90;99.90;;;;;;5055722;28;20032;-83
2021/09/03 06:57:08;;;;;;;12.00;9.77;;;10.90;99.90;;;;;;5058025;28;20036;-81
2021/09/03 06:59:34;;;;;;;14.48;8.55;;;11.00;99.90;;;;;;5054250;28;20024;-79
2021/09/03 07:02:00;;;;;;;12.82;9.18;;;11.20;99.90;;;;;;5090490;22;20014;-76
2021/09/03 07:04:26;;;;;;;10.13;8.45;;;11.30;99.90;;;;;;5031643;28;20529;-75
2021/09/03 07:06:51;;;;;;;12.27;8.80;;;11.40;99.90;;;;;;5032773;28;20021;-75
2021/09/03 07:09:18;;;;;;;10.07;8.48;;;11.50;99.90;;;;;;5032505;28;20029;-78
2021/09/03 07:11:44;;;;;;;11.43;8.38;;;11.60;99.90;;;;;;5033726;28;20021;-78
2021/09/03 07:14:09;;;;;;;13.30;8.68;;;11.70;99.90;;;;;;5038272;28;20029;-79
2021/09/03 07:16:35;;;;;;;13.10;9.88;;;11.80;99.90;;;;;;5035575;28;20036;-78
2021/09/03 07:19:03;;;;;;;10.35;8.45;;;12.00;99.90;;;;;;5034462;28;20380;-78
2021/09/03 07:21:33;;;;;;;11.05;9.05;;;12.00;99.90;;;;;;5034598;28;20028;-78
2021/09/03 07:23:59;;;;;;;9.55;8.55;;;12.20;99.90;;;;;;5034893;28;20018;-79
2021/09/03 07:26:27;;;;;;;11.10;8.65;;;12.30;99.90;;;;;;5034633;28;20083;-78
2021/09/03 07:28:53;;;;;;;11.45;8.80;;;12.50;99.90;;;;;;5029961;28;20472;-77
2021/09/03 07:31:19;;;;;;;13.20;9.02;;;12.60;99.90;;;;;;5013879;28;20064;-78
2021/09/03 07:33:45;;;;;;;14.63;9.32;;;12.80;99.90;;;;;;5015200;28;20083;-78
2021/09/03 07:36:10;;;;;;;11.57;8.68;;;12.90;99.90;;;;;;5012596;28;20029;-78
2021/09/03 07:38:36;;;;;;;10.27;9.18;;;13.10;99.90;;;;;;5013389;28;20041;-78
2021/09/03 07:41:02;;;;;;;9.73;8.73;;;13.20;99.90;;;;;;5014272;28;20025;-78
2021/09/03 07:43:28;;;;;;;9.88;7.68;;;13.30;99.90;;;;;;5013539;28;20026;-77
2021/09/03 07:45:55;;;;;;;8.30;6.90;;;13.80;99.90;;;;;;5012540;28;20022;-75
2021/09/03 07:48:21;;;;;;;15.13;8.07;;;14.00;99.90;;;;;;5015674;28;20017;-75
2021/09/03 07:50:47;;;;;;;9.07;7.55;;;15.10;99.90;;;;;;5031484;28;20030;-75
2021/09/03 07:53:13;;;;;;;6.55;5.95;;;15.30;99.90;;;;;;5031354;28;20557;-74
2021/09/03 07:55:39;;;;;;;8.88;6.15;;;15.50;99.90;;;;;;5030957;28;20024;-75
2021/09/03 07:58:06;;;;;;;8.98;6.78;;;15.80;99.90;;;;;;5031207;28;20030;-74
2021/09/03 08:00:33;;;;;;;8.00;6.25;;;15.90;99.90;;;;;;5031040;28;20545;-74
2021/09/03 08:02:58;;;;;;;7.18;6.22;;;16.10;99.90;;;;;;5030896;28;20033;-72
2021/09/03 08:05:24;;;;;;;7.03;6.32;;;16.50;99.90;;;;;;5029095;28;20026;-77
2021/09/03 08:07:50;;;;;;;6.57;5.88;;;16.70;99.90;;;;;;5012447;28;20022;-75
2021/09/03 08:10:16;;;;;;;7.95;7.05;;;16.80;99.90;;;;;;5010610;28;20026;-75
2021/09/03 08:12:43;;;;;;;9.30;6.53;;;16.70;99.90;;;;;;5013619;28;20026;-76
2021/09/03 08:15:10;;;;;;;8.68;7.75;;;16.30;99.90;;;;;;5015398;28;20500;-76
2021/09/03 08:17:35;;;;;;;7.40;6.57;;;15.90;99.90;;;;;;5016089;28;20033;-76
2021/09/03 08:20:03;;;;;;;7.70;6.80;;;16.60;99.90;;;;;;5016823;28;20069;-76
2021/09/03 08:22:29;;;;;;;8.68;7.07;;;16.70;99.90;;;;;;5015059;28;20022;-76
2021/09/03 08:24:55;;;;;;;7.65;6.95;;;17.20;99.90;;;;;;5015667;28;20037;-77
2021/09/03 08:27:21;;;;;;;8.90;7.97;;;17.40;99.90;;;;;;5015515;28;20025;-76
2021/09/03 08:29:47;;;;;;;7.82;6.70;;;17.50;99.90;;;;;;5015453;28;20053;-74
2021/09/03 08:32:14;;;;;;;9.25;6.28;;;17.80;99.90;;;;;;5018874;28;20029;-75
2021/09/03 08:34:41;;;;;;;7.10;6.40;;;18.70;99.90;;;;;;5034789;28;20034;-77
2021/09/03 08:37:06;;;;;;;8.77;6.30;;;19.20;99.90;;;;;;5035101;28;20025;-77
2021/09/03 08:39:32;;;;;;;7.32;5.93;;;19.80;99.90;;;;;;5035086;28;20029;-76
2021/09/03 08:41:58;;;;;;;6.97;6.25;;;19.30;99.90;;;;;;5033222;28;20029;-77
2021/09/03 08:44:24;;;;;;;8.10;7.28;;;19.20;99.90;;;;;;5015613;28;20022;-77
2021/09/03 08:46:49;;;;;;;10.02;6.55;;;19.60;99.90;;;;;;5015803;28;20454;-75
2021/09/03 08:49:15;;;;;;;9.50;6.20;;;19.60;99.90;;;;;;5019762;28;20036;-77
2021/09/03 08:51:41;;;;;;;7.57;6.15;;;19.20;99.90;;;;;;5021319;28;20499;-76
2021/09/03 08:54:07;;;;;;;9.15;6.82;;;19.80;99.90;;;;;;5018462;28;20064;-75
2021/09/03 08:56:33;;;;;;;6.28;5.78;;;20.30;99.90;;;;;;5016386;28;20022;-76
2021/09/03 08:58:58;;;;;;;8.68;6.53;;;20.90;99.90;;;;;;5015344;28;20026;-77
2021/09/03 09:01:24;;;;;;;6.88;6.28;;;20.90;99.90;;;;;;5030721;28;20032;-76
2021/09/03 09:03:51;;;;;;;6.32;5.80;;;21.00;99.90;;;;;;5035206;28;20116;-76
2021/09/03 09:06:25;;;;;;;7.43;6.75;;;21.30;99.90;;;;;;5034166;28;20132;-76
2021/09/03 09:08:56;;;;;;;7.82;6.38;;;21.50;99.90;;;;;;5034626;28;20109;-76
2021/09/03 09:11:28;;;;;;;8.15;7.20;;;20.70;99.90;;;;;;5036350;28;20036;-76
2021/09/03 09:13:59;;;;;;;7.45;6.75;;;20.80;99.90;;;;;;5035594;28;20053;-76
2021/09/03 09:16:27;;;;;;;7.13;6.30;;;20.80;99.90;;;;;;5035107;28;20052;-74
2021/09/03 09:19:04;;;;;;;7.25;6.55;;;21.40;99.90;;;;;;5036320;28;20105;-75
2021/09/03 09:21:39;;;;;;;10.02;6.30;;;22.00;99.90;;;;;;5036784;28;20121;-75
2021/09/03 09:24:15;;;;;;;7.95;6.20;;;22.30;99.90;;;;;;5033244;28;20021;-75
2021/09/03 09:26:45;;;;;;;6.43;5.82;;;22.70;99.90;;;;;;5034749;28;20021;-77
2021/09/03 09:29:35;;;;;;;8.50;6.03;;;23.20;99.90;;;;;;5034056;28;20040;-76
2021/09/03 09:32:09;;;;;;;7.05;6.45;;;23.90;99.90;;;;;;5033831;28;20076;-75
2021/09/03 09:34:36;;;;;;;8.50;5.82;;;23.90;99.90;;;;;;5033246;28;20044;-75
2021/09/03 09:37:07;;;;;;;6.35;5.65;;;24.10;99.90;;;;;;5024961;28;20376;-75
2021/09/03 09:39:45;;;;;;;7.18;6.43;;;24.50;99.90;;;;;;5023826;28;20408;-75
2021/09/03 09:42:29;;;;;;;6.25;5.65;;;24.30;99.90;;;;;;5025117;28;20021;-79
2021/09/03 09:45:13;;;;;;;9.65;6.35;;;24.30;99.90;;;;;;5027296;28;20535;-78
2021/09/03 09:47:40;;;;;;;6.13;5.50;;;25.50;99.90;;;;;;5026823;28;20026;-78
2021/09/03 09:50:31;;;;;;;6.70;5.65;;;26.20;99.30;;;;;;5024582;28;20511;-77
2021/09/03 09:53:08;;;;;;;7.70;5.93;;;25.40;99.10;;;;;;5023858;28;20037;-79
2021/09/03 09:55:34;;;;;;;5.78;5.22;;;26.20;99.80;;;;;;5034061;28;20526;-79
2021/09/03 09:58:01;;;;;;;6.13;5.63;;;26.90;98.30;;;;;;5028371;28;20057;-79
2021/09/03 10:00:28;;;;;;;6.00;5.40;;;27.70;97.20;;;;;;5027769;28;20113;-79
2021/09/03 10:02:54;;;;;;;6.38;5.30;;;27.40;95.60;;;;;;5036977;28;20037;-78
2021/09/03 10:05:20;;;;;;;6.40;5.63;;;27.80;96.50;;;;;;5016862;28;20164;-78
2021/09/03 10:07:47;;;;;;;5.88;5.38;;;28.10;96.50;;;;;;5017553;28;20531;-80
2021/09/03 10:10:13;;;;;;;6.30;5.68;;;27.80;94.80;;;;;;5015930;28;20175;-78
2021/09/03 10:12:39;;;;;;;6.20;5.60;;;27.70;94.90;;;;;;5031255;28;20030;-78
2021/09/03 10:15:05;;;;;;;6.57;4.88;;;28.30;96.20;;;;;;5033005;28;20025;-81
2021/09/03 10:17:32;;;;;;;5.78;5.28;;;28.30;94.50;;;;;;5020033;28;20037;-79
2021/09/03 10:19:59;;;;;;;6.32;5.72;;;28.00;94.10;;;;;;5017956;28;20026;-80
2021/09/03 10:22:24;;;;;;;5.55;5.05;;;27.90;94.40;;;;;;5021448;28;20527;-78
2021/09/03 10:25:11;;;;;;;6.03;5.05;;;28.40;94.50;;;;;;5022292;28;20029;-77
2021/09/03 10:27:38;;;;;;;6.97;5.50;;;28.80;93.40;;;;;;5019583;28;20085;-76
2021/09/03 10:30:19;;;;;;;8.60;5.07;;;28.60;93.10;;;;;;5023930;28;20033;-75
2021/09/03 10:32:46;;;;;;;5.50;5.00;;;28.10;92.90;;;;;;5033839;28;20045;-75
2021/09/03 10:35:20;;;;;;;8.07;5.32;;;26.40;95.70;;;;;;5033069;28;20029;-76
2021/09/03 10:37:47;;;;;;;5.90;5.40;;;26.70;96.50;;;;;;5030762;28;20108;-70
2021/09/03 10:40:35;;;;;;;5.95;5.43;;;27.60;95.10;;;;;;5031322;28;20357;-69
2021/09/03 10:43:00;;;;;;;5.75;5.15;;;28.20;93.60;;;;;;5023786;28;20018;-71
2021/09/03 10:45:30;;;;;;;5.75;5.22;;;28.80;93.10;;;;;;5029388;28;20022;-71
2021/09/03 10:48:13;;;;;;;5.80;5.30;;;29.00;91.70;;;;;;5012683;28;20364;-72
2021/09/03 10:50:51;;;;;;;7.22;5.22;;;28.40;93.10;;;;;;5013313;28;20049;-70
2021/09/03 10:53:19;;;;;;;11.60;5.75;;;28.50;93.10;;;;;;5011748;28;20033;-70
2021/09/03 10:56:09;;;;;;;6.07;5.55;;;28.90;93.60;;;;;;5012801;28;20056;-70
2021/09/03 10:58:51;;;;;;;6.07;5.47;;;28.70;92.40;;;;;;5013329;28;20480;-70
2021/09/03 11:01:26;;;;;;;7.00;5.93;;;29.00;92.90;;;;;;5027182;28;20030;-70
2021/09/03 11:03:59;;;;;;;6.15;5.65;;;30.60;92.20;;;;;;5038043;28;20021;-70
2021/09/03 11:06:24;;;;;;;6.80;6.05;;;31.00;87.10;;;;;;5053271;28;20040;-69
2021/09/03 11:08:57;;;;;;;5.57;4.88;;;30.30;89.70;;;;;;5040291;28;20108;-70
2021/09/03 11:11:39;;;;;;;5.45;4.97;;;29.80;90.60;;;;;;5032646;28;20060;-69
2021/09/03 11:14:08;;;;;;;5.43;4.95;;;30.70;89.50;;;;;;5033012;28;20109;-71
2021/09/03 11:16:36;;;;;;;5.85;5.25;;;30.30;89.90;;;;;;5031671;28;20029;-72
2021/09/03 11:19:09;;;;;;;6.15;5.05;;;30.50;91.10;;;;;;5031874;28;20480;-70
2021/09/03 11:21:41;;;;;;;5.50;5.10;;;30.00;89.70;;;;;;5032337;28;20025;-70
2021/09/03 11:24:07;;;;;;;5.40;4.90;;;29.30;91.70;;;;;;5030852;28;20021;-69
2021/09/03 11:26:35;;;;;;;5.13;4.68;;;30.10;90.10;;;;;;5031285;28;20083;-71
2021/09/03 11:29:04;;;;;;;5.07;4.63;;;30.10;90.20;;;;;;5032019;28;20491;-70
2021/09/03 11:31:30;;;;;;;6.55;4.55;;;30.50;87.60;;;;;;5032057;28;20029;-69
2021/09/03 11:33:57;;;;;;;5.10;4.70;;;29.20;89.20;;;;;;5031939;28;20025;-70
2021/09/03 11:36:23;;;;;;;5.05;4.60;;;28.60;90.10;;;;;;5031305;28;20119;-70
2021/09/03 11:38:53;;;;;;;5.50;5.00;;;29.20;91.50;;;;;;5032134;28;20471;-70
2021/09/03 11:41:19;;;;;;;6.35;4.82;;;29.90;89.40;;;;;;5032144;28;20068;-71
2021/09/03 11:43:45;;;;;;;5.28;4.82;;;30.40;86.10;;;;;;5031926;28;20031;-70
2021/09/03 11:46:20;;;;;;;4.32;4.03;;;30.00;83.70;;;;;;5030509;28;20036;-70
2021/09/03 11:48:48;;;;;;;5.38;4.85;;;30.10;86.70;;;;;;5031681;28;20032;-70
2021/09/03 11:51:26;;;;;;;5.95;4.47;;;30.30;84.20;;;;;;5032074;28;20087;-70
2021/09/03 11:54:00;;;;;;;5.10;4.50;;;29.70;86.10;;;;;;5031778;28;20028;-72
2021/09/03 11:56:26;;;;;;;4.60;4.20;;;30.60;88.90;;;;;;5031073;28;20494;-71
2021/09/03 11:58:51;;;;;;;5.07;4.57;;;30.80;83.20;;;;;;5020534;28;20018;-77
2021/09/03 12:01:20;;;;;;;4.95;4.55;;;30.40;82.40;;;;;;5030582;28;20064;-76
2021/09/03 12:03:48;;;;;;;4.93;4.53;;;30.20;84.20;;;;;;5030984;28;20152;-76
2021/09/03 12:06:17;;;;;;;8.18;5.25;;;30.30;82.50;;;;;;5009722;28;20033;-77
2021/09/03 12:08:43;;;;;;;5.60;5.07;;;30.70;83.80;;;;;;5012168;28;20088;-77
2021/09/03 12:11:10;;;;;;;4.80;4.40;;;30.30;83.60;;;;;;5011398;28;20026;-76
2021/09/03 12:13:41;;;;;;;12.52;5.03;;;29.50;86.20;;;;;;5011945;28;20109;-77
2021/09/03 12:16:16;;;;;;;6.38;5.78;;;29.50;85.50;;;;;;5010134;28;20076;-77
2021/09/03 12:18:47;;;;;;;5.28;4.88;;;29.40;85.30;;;;;;5007645;28;20088;-76
2021/09/03 12:21:12;;;;;;;6.77;6.17;;;29.80;89.10;;;;;;5012469;28;20500;-77
2021/09/03 12:23:54;;;;;;;5.68;5.18;;;30.80;89.10;;;;;;5012224;28;20060;-76
2021/09/03 12:26:25;;;;;;;7.95;5.22;;;31.60;85.70;;;;;;5011544;28;20022;-76
2021/09/03 12:28:53;;;;;;;7.43;5.23;;;32.20;80.20;;;;;;5014956;28;20053;-77
2021/09/03 12:31:26;;;;;;;5.35;4.80;;;30.50;83.20;;;;;;5031825;28;20032;-78
2021/09/03 12:33:57;;;;;;;5.50;5.00;;;29.70;85.40;;;;;;5015529;28;20042;-76
2021/09/03 12:36:26;;;;;;;7.75;5.05;;;29.90;86.20;;;;;;5011287;28;20040;-76